Time;durP1;ratioP1;P1;durP2;ratioP2;P2;SDS_P1;SDS_P2;PMS_P1;PMS_P2;Temp;Humidity;BMP_temperature;BMP_pressure;BME280_temperature;BME280_humidity;BME280_pressure;Samples;Min_cycle;Max_cycle;Signal;HPM_P1;HPM_P2
2022/11/22 00:00:08;;;;;;;14.30;10.57;;;;;;;;;;5093322;28;20221;-61
2022/11/22 00:02:34;;;;;;;15.40;10.45;;;;;;;;;;5093191;28;20275;-62
2022/11/22 00:05:02;;;;;;;14.35;10.48;;;;;;;;;;5093462;28;20189;-62
2022/11/22 00:07:29;;;;;;;15.07;11.55;;;;;;;;;;5093400;28;20200;-62
2022/11/22 00:09:56;;;;;;;17.35;10.65;;;;;;;;;;5093317;28;20199;-62
2022/11/22 00:12:24;;;;;;;15.00;11.25;;;;;;;;;;5093225;28;20547;-62
2022/11/22 00:14:51;;;;;;;20.15;11.27;;;;;;;;;;5093099;28;20189;-62
2022/11/22 00:17:18;;;;;;;15.45;10.52;;;;;;;;;;5093138;28;20189;-61
2022/11/22 00:19:45;;;;;;;14.27;9.88;;;;;;;;;;5093119;28;20556;-62
2022/11/22 00:22:12;;;;;;;17.08;11.63;;;;;;;;;;5093116;28;20284;-62
2022/11/22 00:24:39;;;;;;;12.73;9.77;;;;;;;;;;5093164;28;20466;-61
2022/11/22 00:27:05;;;;;;;14.30;10.63;;;;;;;;;;5093003;28;20280;-61
2022/11/22 00:29:34;;;;;;;15.95;10.93;;;;;;;;;;5092907;28;20189;-62
2022/11/22 00:32:01;;;;;;;18.40;11.45;;;;;;;;;;5093112;28;20547;-61
2022/11/22 00:34:28;;;;;;;15.15;10.57;;;;;;;;;;5093107;28;20195;-61
2022/11/22 00:36:54;;;;;;;17.05;11.00;;;;;;;;;;5093000;28;20188;-61
2022/11/22 00:39:21;;;;;;;16.17;12.13;;;;;;;;;;5092915;28;20221;-61
2022/11/22 00:41:48;;;;;;;15.40;11.05;;;;;;;;;;5092793;28;20604;-61
2022/11/22 00:44:15;;;;;;;16.17;11.82;;;;;;;;;;5093473;28;20401;-61
2022/11/22 00:46:43;;;;;;;17.83;12.38;;;;;;;;;;5097073;28;20307;-62
2022/11/22 00:49:10;;;;;;;16.27;11.38;;;;;;;;;;5097111;28;20283;-61
2022/11/22 00:51:37;;;;;;;15.77;11.60;;;;;;;;;;5097015;28;20195;-61
2022/11/22 00:54:05;;;;;;;16.05;11.10;;;;;;;;;;5096972;28;20221;-61
2022/11/22 00:56:32;;;;;;;17.77;11.95;;;;;;;;;;5096839;28;20648;-61
2022/11/22 00:58:59;;;;;;;19.17;12.98;;;;;;;;;;5096707;28;20877;-61
2022/11/22 01:01:26;;;;;;;20.65;13.57;;;;;;;;;;5096895;28;20189;-62
2022/11/22 01:03:54;;;;;;;19.95;12.40;;;;;;;;;;5096881;28;20189;-61
2022/11/22 01:06:21;;;;;;;16.17;11.55;;;;;;;;;;5096646;28;20681;-61
2022/11/22 01:08:48;;;;;;;15.00;11.07;;;;;;;;;;5096763;28;20600;-61
2022/11/22 01:11:19;;;;;;;18.35;13.23;;;;;;;;;;5096549;28;20189;-61
2022/11/22 01:13:46;;;;;;;21.20;13.02;;;;;;;;;;5096809;28;20200;-62
2022/11/22 01:16:14;;;;;;;19.42;12.75;;;;;;;;;;5096742;28;20189;-62
2022/11/22 01:18:41;;;;;;;20.40;12.35;;;;;;;;;;5096490;28;20235;-61
2022/11/22 01:21:09;;;;;;;22.30;14.50;;;;;;;;;;5096413;28;20227;-61
2022/11/22 01:23:36;;;;;;;16.83;11.88;;;;;;;;;;5096355;28;20193;-61
2022/11/22 01:26:04;;;;;;;20.58;12.00;;;;;;;;;;5096517;28;20191;-61
2022/11/22 01:28:30;;;;;;;18.00;12.35;;;;;;;;;;5096414;28;20543;-62
2022/11/22 01:30:57;;;;;;;24.58;15.20;;;;;;;;;;5096243;28;20284;-62
2022/11/22 01:33:24;;;;;;;18.08;12.38;;;;;;;;;;5096274;28;20189;-61
2022/11/22 01:35:53;;;;;;;19.40;12.52;;;;;;;;;;5096087;28;20224;-62
2022/11/22 01:38:21;;;;;;;18.90;12.02;;;;;;;;;;5096037;28;20232;-62
2022/11/22 01:40:48;;;;;;;17.48;12.50;;;;;;;;;;5096331;28;20698;-62
2022/11/22 01:43:17;;;;;;;19.77;13.75;;;;;;;;;;5096125;28;20193;-62
2022/11/22 01:45:51;;;;;;;21.70;12.88;;;;;;;;;;5096003;28;20195;-61
2022/11/22 01:48:24;;;;;;;20.42;12.70;;;;;;;;;;5095777;28;20220;-61
2022/11/22 01:50:54;;;;;;;21.40;12.18;;;;;;;;;;5095775;28;20188;-62
2022/11/22 01:53:24;;;;;;;19.73;11.80;;;;;;;;;;5095893;28;20191;-62
2022/11/22 01:55:52;;;;;;;20.08;12.55;;;;;;;;;;5095652;28;20624;-61
2022/11/22 01:58:19;;;;;;;24.50;13.10;;;;;;;;;;5095805;28;20276;-61
2022/11/22 02:00:46;;;;;;;22.73;13.10;;;;;;;;;;5095606;28;20312;-61
2022/11/22 02:03:14;;;;;;;18.88;11.77;;;;;;;;;;5095401;28;20189;-62
2022/11/22 02:05:42;;;;;;;20.38;13.55;;;;;;;;;;5095767;28;20622;-62
2022/11/22 02:08:12;;;;;;;19.48;12.75;;;;;;;;;;5095629;28;20192;-61
2022/11/22 02:10:42;;;;;;;20.45;12.00;;;;;;;;;;5095572;28;20185;-61
2022/11/22 02:13:10;;;;;;;21.35;14.15;;;;;;;;;;5095460;28;20554;-61
2022/11/22 02:15:37;;;;;;;21.20;13.02;;;;;;;;;;5095311;28;20227;-62
2022/11/22 02:18:04;;;;;;;19.23;14.23;;;;;;;;;;5095335;28;20192;-61
2022/11/22 02:20:32;;;;;;;20.02;13.07;;;;;;;;;;5095362;28;20217;-62
2022/11/22 02:23:00;;;;;;;21.05;12.43;;;;;;;;;;5095238;28;20185;-61
2022/11/22 02:25:30;;;;;;;24.52;13.07;;;;;;;;;;5095303;28;20188;-61
2022/11/22 02:27:59;;;;;;;20.92;13.88;;;;;;;;;;5095185;28;20288;-61
2022/11/22 02:30:26;;;;;;;20.90;13.82;;;;;;;;;;5095032;28;20221;-61
2022/11/22 02:32:53;;;;;;;20.75;14.70;;;;;;;;;;5095179;28;20196;-61
2022/11/22 02:35:21;;;;;;;19.23;12.10;;;;;;;;;;5095207;28;20189;-62
2022/11/22 02:37:50;;;;;;;21.90;13.73;;;;;;;;;;5095370;28;20211;-62
2022/11/22 02:40:17;;;;;;;19.15;13.98;;;;;;;;;;5094886;28;20663;-61
2022/11/22 02:42:47;;;;;;;26.45;14.82;;;;;;;;;;5094740;28;20185;-62
2022/11/22 02:45:15;;;;;;;20.02;14.18;;;;;;;;;;5094946;28;20189;-61
2022/11/22 02:47:42;;;;;;;25.33;13.98;;;;;;;;;;5094603;28;20216;-61
2022/11/22 02:50:09;;;;;;;18.70;12.13;;;;;;;;;;5094817;28;20189;-62
2022/11/22 02:52:36;;;;;;;19.92;14.00;;;;;;;;;;5094692;28;20189;-61
2022/11/22 02:55:04;;;;;;;23.13;14.43;;;;;;;;;;5094682;28;20193;-61
2022/11/22 02:57:30;;;;;;;19.83;12.27;;;;;;;;;;5094457;28;20276;-62
2022/11/22 02:59:57;;;;;;;28.13;15.05;;;;;;;;;;5094616;28;20227;-61
2022/11/22 03:02:26;;;;;;;21.17;13.32;;;;;;;;;;5094522;28;20195;-61
2022/11/22 03:04:53;;;;;;;22.38;13.20;;;;;;;;;;5094496;28;20578;-61
2022/11/22 03:07:20;;;;;;;18.58;13.10;;;;;;;;;;5093530;28;20279;-61
2022/11/22 03:09:46;;;;;;;23.60;14.05;;;;;;;;;;5094243;28;20188;-62
2022/11/22 03:12:13;;;;;;;20.50;14.77;;;;;;;;;;5094130;28;20189;-61
2022/11/22 03:14:41;;;;;;;21.75;13.52;;;;;;;;;;5094445;28;20284;-62
2022/11/22 03:17:08;;;;;;;20.73;12.65;;;;;;;;;;5094254;28;20188;-61
2022/11/22 03:19:36;;;;;;;22.88;14.35;;;;;;;;;;5094168;28;20604;-61
2022/11/22 03:22:03;;;;;;;21.17;14.15;;;;;;;;;;5094069;28;20189;-61
2022/11/22 03:24:30;;;;;;;24.90;15.57;;;;;;;;;;5093986;28;20272;-61
2022/11/22 03:26:57;;;;;;;18.92;13.07;;;;;;;;;;5094312;28;20283;-61
2022/11/22 03:29:24;;;;;;;20.52;14.98;;;;;;;;;;5094215;28;20661;-61
2022/11/22 03:31:51;;;;;;;24.17;15.48;;;;;;;;;;5094004;28;20276;-61
2022/11/22 03:34:18;;;;;;;24.50;14.20;;;;;;;;;;5093952;28;20279;-61
2022/11/22 03:36:46;;;;;;;22.75;15.25;;;;;;;;;;5093778;28;20276;-62
2022/11/22 03:39:13;;;;;;;24.83;14.07;;;;;;;;;;5093643;28;20723;-62
2022/11/22 03:41:40;;;;;;;25.67;15.98;;;;;;;;;;5093782;28;20304;-62
2022/11/22 03:44:07;;;;;;;23.40;15.27;;;;;;;;;;5093585;28;20702;-61
2022/11/22 03:46:34;;;;;;;22.45;14.75;;;;;;;;;;5093614;28;20679;-61
2022/11/22 03:49:01;;;;;;;22.02;14.05;;;;;;;;;;5093670;28;20681;-61
2022/11/22 03:51:28;;;;;;;23.63;13.52;;;;;;;;;;5093481;28;20189;-61
2022/11/22 03:53:57;;;;;;;25.73;15.18;;;;;;;;;;5093752;28;20266;-61
2022/11/22 03:56:24;;;;;;;30.02;17.45;;;;;;;;;;5093688;28;20189;-62
2022/11/22 03:58:51;;;;;;;25.20;15.80;;;;;;;;;;5093304;28;20670;-61
2022/11/22 04:01:18;;;;;;;24.80;16.27;;;;;;;;;;5093291;28;20216;-61
2022/11/22 04:03:45;;;;;;;27.25;16.02;;;;;;;;;;5093420;28;20185;-61
2022/11/22 04:06:12;;;;;;;26.10;16.23;;;;;;;;;;5093255;28;20250;-61
2022/11/22 04:08:39;;;;;;;29.20;16.98;;;;;;;;;;5093318;28;20185;-61
2022/11/22 04:11:07;;;;;;;28.33;16.58;;;;;;;;;;5093334;28;20276;-61
2022/11/22 04:16:15;;;;;;;29.50;16.92;;;;;;;;;;5070171;28;20298;-61
2022/11/22 04:18:42;;;;;;;28.08;16.63;;;;;;;;;;5092936;28;20195;-61
2022/11/22 04:26:36;;;;;;;30.48;18.30;;;;;;;;;;5093301;28;20652;-61
2022/11/22 04:29:04;;;;;;;32.60;20.23;;;;;;;;;;5092968;28;20196;-62
2022/11/22 04:34:15;;;;;;;35.08;18.23;;;;;;;;;;5093003;28;20243;-61
2022/11/22 04:36:42;;;;;;;25.40;17.05;;;;;;;;;;5092990;28;20188;-61
2022/11/22 04:39:09;;;;;;;37.92;18.30;;;;;;;;;;5092867;28;20670;-61
2022/11/22 04:41:38;;;;;;;28.58;18.27;;;;;;;;;;5092639;28;20212;-61
2022/11/22 04:46:49;;;;;;;28.60;16.67;;;;;;;;;;5092679;28;20286;-61
2022/11/22 04:49:16;;;;;;;34.85;19.73;;;;;;;;;;5092803;28;20287;-61
2022/11/22 04:54:28;;;;;;;37.40;17.95;;;;;;;;;;5092849;28;20281;-61
2022/11/22 04:56:56;;;;;;;35.03;17.75;;;;;;;;;;5092850;28;20193;-61
2022/11/22 04:59:23;;;;;;;36.40;19.80;;;;;;;;;;5093047;28;20195;-61
2022/11/22 05:01:50;;;;;;;36.13;18.00;;;;;;;;;;5092657;28;20221;-61
2022/11/22 05:04:17;;;;;;;36.25;19.65;;;;;;;;;;5093238;28;20193;-61
2022/11/22 05:06:44;;;;;;;35.15;20.17;;;;;;;;;;5092554;28;20204;-61
2022/11/22 05:09:11;;;;;;;37.63;20.25;;;;;;;;;;5092865;28;20639;-62
2022/11/22 05:11:38;;;;;;;38.15;20.70;;;;;;;;;;5092582;28;20664;-62
2022/11/22 05:14:07;;;;;;;35.05;18.83;;;;;;;;;;5092778;28;20189;-62
2022/11/22 05:16:34;;;;;;;39.67;20.00;;;;;;;;;;5092555;28;20186;-61
2022/11/22 05:19:01;;;;;;;40.83;21.02;;;;;;;;;;5092542;28;20225;-62
2022/11/22 05:21:29;;;;;;;38.80;19.88;;;;;;;;;;5092897;28;20248;-62
2022/11/22 05:23:55;;;;;;;37.25;20.83;;;;;;;;;;5092270;28;20740;-62
2022/11/22 05:26:23;;;;;;;37.75;20.55;;;;;;;;;;5092531;28;20222;-61
2022/11/22 05:28:50;;;;;;;35.83;18.98;;;;;;;;;;5092681;28;20190;-61
2022/11/22 05:31:22;;;;;;;34.75;19.85;;;;;;;;;;5094922;28;20714;-61
2022/11/22 05:33:49;;;;;;;37.95;19.60;;;;;;;;;;5096212;28;20280;-62
2022/11/22 05:36:17;;;;;;;41.00;20.08;;;;;;;;;;5096530;28;20548;-62
2022/11/22 05:38:47;;;;;;;34.70;20.60;;;;;;;;;;5096202;28;20205;-62
2022/11/22 05:41:15;;;;;;;32.20;19.50;;;;;;;;;;5096117;28;20745;-61
2022/11/22 05:43:42;;;;;;;32.88;21.15;;;;;;;;;;5096189;28;20197;-62
2022/11/22 05:46:12;;;;;;;33.60;19.20;;;;;;;;;;5096025;28;20665;-62
2022/11/22 05:48:41;;;;;;;39.40;20.73;;;;;;;;;;5096236;28;20192;-61
2022/11/22 05:51:20;;;;;;;35.90;19.25;;;;;;;;;;5095866;28;20192;-62
2022/11/22 05:53:47;;;;;;;39.63;21.02;;;;;;;;;;5095844;28;20663;-61
2022/11/22 05:56:16;;;;;;;43.60;22.30;;;;;;;;;;5095850;28;20602;-61
2022/11/22 05:58:43;;;;;;;38.35;20.52;;;;;;;;;;5095790;28;20189;-62
2022/11/22 06:01:11;;;;;;;48.25;21.52;;;;;;;;;;5095880;28;20633;-62
2022/11/22 06:03:38;;;;;;;35.00;19.30;;;;;;;;;;5095840;28;20679;-62
2022/11/22 06:06:07;;;;;;;38.55;19.10;;;;;;;;;;5095811;28;20193;-62
2022/11/22 06:08:35;;;;;;;34.97;19.13;;;;;;;;;;5095778;28;20190;-62
2022/11/22 06:11:06;;;;;;;38.17;21.23;;;;;;;;;;5095521;28;20189;-62
2022/11/22 06:13:35;;;;;;;35.08;20.33;;;;;;;;;;5095425;28;20727;-62
2022/11/22 06:16:02;;;;;;;39.70;19.38;;;;;;;;;;5095672;28;20651;-61
2022/11/22 06:18:29;;;;;;;32.20;18.95;;;;;;;;;;5095610;28;20563;-61
2022/11/22 06:20:57;;;;;;;30.88;19.95;;;;;;;;;;5095474;28;20617;-62
2022/11/22 06:23:26;;;;;;;33.90;19.50;;;;;;;;;;5095499;28;20272;-62
2022/11/22 06:25:58;;;;;;;34.90;19.65;;;;;;;;;;5095177;28;20225;-62
2022/11/22 06:28:25;;;;;;;31.13;18.10;;;;;;;;;;5095170;28;20192;-62
2022/11/22 06:31:01;;;;;;;37.10;20.08;;;;;;;;;;5095388;28;20215;-62
2022/11/22 06:33:28;;;;;;;36.33;18.40;;;;;;;;;;5095435;28;20272;-62
2022/11/22 06:35:55;;;;;;;32.00;18.90;;;;;;;;;;5095015;28;20247;-62
2022/11/22 06:38:22;;;;;;;32.17;19.73;;;;;;;;;;5094888;28;20197;-62
2022/11/22 06:40:51;;;;;;;36.95;18.50;;;;;;;;;;5094825;28;20234;-62
2022/11/22 06:43:18;;;;;;;28.48;17.02;;;;;;;;;;5095104;28;20192;-62
2022/11/22 06:45:45;;;;;;;32.67;19.48;;;;;;;;;;5095036;28;20529;-61
2022/11/22 06:48:16;;;;;;;30.52;17.45;;;;;;;;;;5094579;28;20235;-61
2022/11/22 06:50:43;;;;;;;37.75;19.20;;;;;;;;;;5094635;28;20228;-61
2022/11/22 06:53:10;;;;;;;37.60;19.98;;;;;;;;;;5094866;28;20197;-61
2022/11/22 06:55:37;;;;;;;31.75;18.42;;;;;;;;;;5094969;28;20224;-65
2022/11/22 06:58:06;;;;;;;32.22;18.13;;;;;;;;;;5094674;28;20652;-61
2022/11/22 07:00:33;;;;;;;35.80;20.58;;;;;;;;;;5094549;28;20215;-62
2022/11/22 07:03:00;;;;;;;31.30;19.15;;;;;;;;;;5094499;28;20185;-61
2022/11/22 07:05:27;;;;;;;34.72;18.20;;;;;;;;;;5094247;28;20697;-61
2022/11/22 07:07:54;;;;;;;33.53;18.75;;;;;;;;;;5094600;28;20273;-62
2022/11/22 07:10:21;;;;;;;32.90;18.48;;;;;;;;;;5094565;28;20729;-62
2022/11/22 07:12:48;;;;;;;32.30;17.27;;;;;;;;;;5094438;28;20197;-61
2022/11/22 07:15:17;;;;;;;31.40;18.25;;;;;;;;;;5094388;28;20245;-61
2022/11/22 07:17:44;;;;;;;33.85;19.13;;;;;;;;;;5094161;28;20185;-62
2022/11/22 07:20:14;;;;;;;31.45;18.17;;;;;;;;;;5094423;28;20382;-61
2022/11/22 07:22:41;;;;;;;32.13;18.30;;;;;;;;;;5094157;28;20221;-62
2022/11/22 07:25:08;;;;;;;29.88;18.08;;;;;;;;;;5093762;28;20197;-62
2022/11/22 07:27:35;;;;;;;43.45;22.75;;;;;;;;;;5094161;28;20192;-62
2022/11/22 07:30:03;;;;;;;30.25;18.02;;;;;;;;;;5094014;28;20227;-62
2022/11/22 07:32:31;;;;;;;35.67;19.52;;;;;;;;;;5093884;28;20706;-62
2022/11/22 07:34:58;;;;;;;34.83;18.30;;;;;;;;;;5094050;28;20189;-62
2022/11/22 07:37:25;;;;;;;31.52;18.65;;;;;;;;;;5094008;28;20193;-64
2022/11/22 07:39:53;;;;;;;32.47;19.27;;;;;;;;;;5093652;28;20224;-62
2022/11/22 07:42:20;;;;;;;31.60;17.85;;;;;;;;;;5093850;28;20255;-61
2022/11/22 07:44:47;;;;;;;27.75;17.30;;;;;;;;;;5093810;28;20250;-62
2022/11/22 07:47:15;;;;;;;33.55;19.33;;;;;;;;;;5093435;28;20439;-61
2022/11/22 07:49:45;;;;;;;35.47;17.63;;;;;;;;;;5093881;28;20200;-62
2022/11/22 07:52:12;;;;;;;32.90;18.38;;;;;;;;;;5093771;28;20224;-61
2022/11/22 07:54:40;;;;;;;35.67;18.27;;;;;;;;;;5093041;28;20193;-62
2022/11/22 07:57:07;;;;;;;29.73;17.52;;;;;;;;;;5093585;28;20246;-62
2022/11/22 07:59:34;;;;;;;34.45;18.45;;;;;;;;;;5093375;28;20184;-61
2022/11/22 08:02:01;;;;;;;36.42;18.60;;;;;;;;;;5093564;28;20789;-61
2022/11/22 08:04:29;;;;;;;39.28;19.70;;;;;;;;;;5093815;28;20208;-62
2022/11/22 08:06:58;;;;;;;35.90;18.67;;;;;;;;;;5093891;28;20193;-62
2022/11/22 08:09:25;;;;;;;35.72;19.52;;;;;;;;;;5094091;28;20287;-61
2022/11/22 08:11:53;;;;;;;40.63;21.33;;;;;;;;;;5094122;28;20191;-62
2022/11/22 08:14:20;;;;;;;33.30;19.60;;;;;;;;;;5094371;28;20189;-61
2022/11/22 08:16:47;;;;;;;32.67;19.00;;;;;;;;;;5094777;28;20197;-61
2022/11/22 08:19:16;;;;;;;37.33;20.15;;;;;;;;;;5094428;28;20185;-62
2022/11/22 08:21:43;;;;;;;40.80;20.33;;;;;;;;;;5094275;28;20208;-62
2022/11/22 08:24:12;;;;;;;39.05;21.10;;;;;;;;;;5094204;28;20270;-61
2022/11/22 08:26:40;;;;;;;36.85;19.83;;;;;;;;;;5094091;28;20537;-62
2022/11/22 08:29:07;;;;;;;38.55;20.15;;;;;;;;;;5084339;28;20182;-62
2022/11/22 08:31:35;;;;;;;38.03;21.15;;;;;;;;;;5073811;28;20189;-63
2022/11/22 08:34:02;;;;;;;40.22;20.88;;;;;;;;;;5073918;28;20657;-63
2022/11/22 08:36:29;;;;;;;39.28;19.92;;;;;;;;;;5073836;28;20252;-68
2022/11/22 08:38:57;;;;;;;43.05;21.40;;;;;;;;;;5073516;28;20190;-60
2022/11/22 08:41:25;;;;;;;39.72;20.67;;;;;;;;;;5075863;28;20304;-63
2022/11/22 08:43:53;;;;;;;41.88;19.75;;;;;;;;;;5082556;28;20189;-66
2022/11/22 08:46:22;;;;;;;38.22;21.60;;;;;;;;;;5080684;28;20662;-64
2022/11/22 08:48:52;;;;;;;44.22;21.35;;;;;;;;;;5073584;28;20193;-62
2022/11/22 08:51:19;;;;;;;39.42;21.08;;;;;;;;;;5073683;28;20202;-62
2022/11/22 08:53:47;;;;;;;43.00;21.48;;;;;;;;;;5073643;28;20190;-64
2022/11/22 08:56:15;;;;;;;36.90;20.17;;;;;;;;;;5073683;28;20275;-62
2022/11/22 08:58:43;;;;;;;45.00;22.38;;;;;;;;;;5078495;28;20235;-62
2022/11/22 09:01:12;;;;;;;46.78;23.88;;;;;;;;;;5073347;28;20534;-62
2022/11/22 09:03:40;;;;;;;46.97;23.75;;;;;;;;;;5073205;28;20704;-61
2022/11/22 09:06:08;;;;;;;46.78;22.65;;;;;;;;;;5080955;28;20235;-62
2022/11/22 09:08:36;;;;;;;41.35;21.95;;;;;;;;;;5083133;28;20604;-62
2022/11/22 09:11:05;;;;;;;40.78;22.80;;;;;;;;;;5077941;28;20664;-63
2022/11/22 09:13:33;;;;;;;46.10;21.92;;;;;;;;;;5077767;28;20193;-63
2022/11/22 09:16:03;;;;;;;42.10;23.98;;;;;;;;;;5084921;28;20239;-65
2022/11/22 09:18:30;;;;;;;45.83;21.02;;;;;;;;;;5082505;28;20188;-65
2022/11/22 09:20:59;;;;;;;45.15;23.75;;;;;;;;;;5095084;28;20641;-61
2022/11/22 09:23:26;;;;;;;41.67;21.40;;;;;;;;;;5097083;28;20648;-58
2022/11/22 09:25:57;;;;;;;43.78;24.00;;;;;;;;;;5091811;28;20220;-61
2022/11/22 09:28:25;;;;;;;52.58;26.35;;;;;;;;;;5096762;28;20491;-61
2022/11/22 09:30:58;;;;;;;44.00;23.33;;;;;;;;;;5096957;28;20238;-61
2022/11/22 09:33:27;;;;;;;48.13;24.05;;;;;;;;;;5096811;28;20223;-60
2022/11/22 09:35:59;;;;;;;46.28;23.05;;;;;;;;;;5085266;28;20545;-62
2022/11/22 09:38:27;;;;;;;40.53;20.90;;;;;;;;;;5076572;28;20233;-61
2022/11/22 09:40:54;;;;;;;45.60;21.83;;;;;;;;;;5076739;28;20212;-61
2022/11/22 09:43:25;;;;;;;42.70;22.25;;;;;;;;;;5076427;28;20592;-65
2022/11/22 09:46:03;;;;;;;41.42;22.15;;;;;;;;;;5076486;28;20568;-61
2022/11/22 09:48:40;;;;;;;41.72;22.38;;;;;;;;;;5076040;28;20221;-62
2022/11/22 09:51:09;;;;;;;40.33;21.75;;;;;;;;;;5075901;28;20643;-63
2022/11/22 09:53:38;;;;;;;42.95;21.63;;;;;;;;;;5075789;28;20604;-63
2022/11/22 09:56:10;;;;;;;43.15;22.65;;;;;;;;;;5075526;28;20276;-64
2022/11/22 09:58:39;;;;;;;42.22;21.08;;;;;;;;;;5077564;28;20534;-61
2022/11/22 10:01:09;;;;;;;37.80;21.08;;;;;;;;;;5089847;28;20192;-63
2022/11/22 10:03:42;;;;;;;40.25;19.77;;;;;;;;;;5095568;28;20307;-62
2022/11/22 10:06:14;;;;;;;46.55;23.00;;;;;;;;;;5095972;28;20548;-63
2022/11/22 10:08:46;;;;;;;44.20;22.13;;;;;;;;;;5095718;28;20568;-61
2022/11/22 10:11:15;;;;;;;41.10;22.35;;;;;;;;;;5095823;28;20217;-66
2022/11/22 10:13:44;;;;;;;41.88;21.67;;;;;;;;;;5095785;28;20656;-60
2022/11/22 10:16:14;;;;;;;47.15;22.48;;;;;;;;;;5095221;28;20274;-61
2022/11/22 10:18:45;;;;;;;40.28;21.77;;;;;;;;;;5095770;28;20193;-61
2022/11/22 10:21:20;;;;;;;57.22;25.00;;;;;;;;;;5095414;28;20226;-61
2022/11/22 10:23:47;;;;;;;38.42;21.02;;;;;;;;;;5095391;28;20213;-61
2022/11/22 10:26:19;;;;;;;45.47;22.00;;;;;;;;;;5088376;28;20199;-61
2022/11/22 10:28:51;;;;;;;43.28;22.73;;;;;;;;;;5093234;28;20240;-56
2022/11/22 10:31:22;;;;;;;38.88;21.40;;;;;;;;;;5090404;28;20189;-55
2022/11/22 10:33:56;;;;;;;39.45;22.10;;;;;;;;;;5095114;28;20193;-56
2022/11/22 10:36:28;;;;;;;37.22;20.67;;;;;;;;;;5095406;28;20199;-55
2022/11/22 10:39:11;;;;;;;40.38;21.70;;;;;;;;;;5095825;28;20193;-57
2022/11/22 10:41:47;;;;;;;47.00;22.10;;;;;;;;;;5094583;28;20240;-56
2022/11/22 10:44:20;;;;;;;42.92;20.92;;;;;;;;;;5094965;28;20250;-52
2022/11/22 10:46:53;;;;;;;37.10;21.60;;;;;;;;;;5095219;28;20278;-56
2022/11/22 10:49:26;;;;;;;39.30;22.17;;;;;;;;;;5095045;28;20194;-56
2022/11/22 10:51:59;;;;;;;37.90;19.92;;;;;;;;;;5094722;28;20231;-57
2022/11/22 10:54:30;;;;;;;35.10;19.92;;;;;;;;;;5094688;28;20193;-57
2022/11/22 10:57:00;;;;;;;36.55;21.20;;;;;;;;;;5095064;28;20184;-56
2022/11/22 10:59:34;;;;;;;37.75;19.73;;;;;;;;;;5094484;28;20190;-56
2022/11/22 11:02:03;;;;;;;34.97;21.25;;;;;;;;;;5092634;28;20699;-61
2022/11/22 11:04:35;;;;;;;44.95;25.10;;;;;;;;;;5090565;28;20276;-62
2022/11/22 11:07:02;;;;;;;40.63;22.35;;;;;;;;;;5094529;28;20610;-60
2022/11/22 11:09:33;;;;;;;36.33;21.70;;;;;;;;;;5094572;28;20189;-60
2022/11/22 11:12:01;;;;;;;38.13;19.98;;;;;;;;;;5094320;28;20190;-63
2022/11/22 11:14:33;;;;;;;32.90;20.35;;;;;;;;;;5094316;28;20549;-60
2022/11/22 11:17:01;;;;;;;32.35;18.75;;;;;;;;;;5094334;28;20193;-59
2022/11/22 11:19:29;;;;;;;38.33;21.55;;;;;;;;;;5094857;28;20671;-58
2022/11/22 11:22:01;;;;;;;39.30;20.10;;;;;;;;;;5088122;28;20182;-60
2022/11/22 11:24:29;;;;;;;38.65;21.40;;;;;;;;;;5091930;28;20234;-58
2022/11/22 11:26:58;;;;;;;39.42;20.83;;;;;;;;;;5093953;28;20277;-59
2022/11/22 11:29:34;;;;;;;39.10;20.30;;;;;;;;;;5072777;28;20182;-60
2022/11/22 11:32:09;;;;;;;33.65;20.02;;;;;;;;;;5073314;28;20672;-60
2022/11/22 11:34:37;;;;;;;42.20;21.48;;;;;;;;;;5074983;28;20244;-60
2022/11/22 11:37:07;;;;;;;35.33;20.63;;;;;;;;;;5081557;28;20626;-58
2022/11/22 11:39:34;;;;;;;35.45;20.33;;;;;;;;;;5072924;28;20194;-59
2022/11/22 11:42:02;;;;;;;32.08;19.23;;;;;;;;;;5072477;28;20190;-65
2022/11/22 11:44:31;;;;;;;35.92;21.23;;;;;;;;;;5073470;28;20196;-62
2022/11/22 11:46:59;;;;;;;39.35;21.30;;;;;;;;;;5072806;28;20253;-64
2022/11/22 11:49:26;;;;;;;40.08;20.50;;;;;;;;;;5079545;28;20223;-63
2022/11/22 11:51:55;;;;;;;35.80;21.50;;;;;;;;;;5073646;28;20694;-59
2022/11/22 11:54:25;;;;;;;38.80;21.02;;;;;;;;;;5073694;28;20565;-65
2022/11/22 11:56:53;;;;;;;39.80;19.65;;;;;;;;;;5073270;28;20323;-57
2022/11/22 11:59:21;;;;;;;34.17;19.45;;;;;;;;;;5073398;28;20244;-59
2022/11/22 12:01:53;;;;;;;45.10;20.80;;;;;;;;;;5072805;28;20288;-60
2022/11/22 12:04:21;;;;;;;29.58;18.30;;;;;;;;;;5075704;28;20224;-60
2022/11/22 12:06:56;;;;;;;34.03;20.63;;;;;;;;;;5078330;28;20275;-59
2022/11/22 12:09:41;;;;;;;32.95;19.38;;;;;;;;;;5072451;28;20580;-59
2022/11/22 12:12:17;;;;;;;35.72;18.60;;;;;;;;;;5071520;28;20263;-59
2022/11/22 12:14:48;;;;;;;41.80;21.33;;;;;;;;;;5075235;28;20315;-61
2022/11/22 12:17:20;;;;;;;35.50;20.35;;;;;;;;;;5076836;28;20194;-63
2022/11/22 12:19:51;;;;;;;39.38;18.85;;;;;;;;;;5076389;28;20688;-62
2022/11/22 12:22:21;;;;;;;36.15;19.63;;;;;;;;;;5071149;28;20278;-59
2022/11/22 12:24:52;;;;;;;32.72;19.67;;;;;;;;;;5070726;28;20641;-60
2022/11/22 12:27:20;;;;;;;43.35;22.25;;;;;;;;;;5071123;28;20596;-59
2022/11/22 12:29:52;;;;;;;34.33;19.52;;;;;;;;;;5070567;28;20240;-56
2022/11/22 12:32:23;;;;;;;36.75;20.88;;;;;;;;;;5070826;28;20197;-60
2022/11/22 12:34:52;;;;;;;39.33;20.17;;;;;;;;;;5070916;28;20202;-57
2022/11/22 12:37:21;;;;;;;39.17;19.90;;;;;;;;;;5072237;28;20185;-56
2022/11/22 12:39:49;;;;;;;38.08;20.00;;;;;;;;;;5072419;28;20643;-55
2022/11/22 12:42:19;;;;;;;35.53;19.80;;;;;;;;;;5072637;28;20202;-68
2022/11/22 12:44:49;;;;;;;36.33;19.70;;;;;;;;;;5072728;28;20281;-63
2022/11/22 12:47:19;;;;;;;37.67;20.23;;;;;;;;;;5072509;28;20218;-63
2022/11/22 12:49:49;;;;;;;41.10;21.42;;;;;;;;;;5072126;28;20194;-62
2022/11/22 12:52:18;;;;;;;34.70;20.00;;;;;;;;;;5071732;28;20276;-60
2022/11/22 12:54:57;;;;;;;36.25;20.77;;;;;;;;;;5072602;28;20218;-60
2022/11/22 12:57:26;;;;;;;36.17;20.02;;;;;;;;;;5072466;28;20276;-62
2022/11/22 12:59:58;;;;;;;36.08;19.45;;;;;;;;;;5072886;28;20600;-60
2022/11/22 13:02:31;;;;;;;37.42;20.77;;;;;;;;;;5072443;28;20247;-63
2022/11/22 13:05:02;;;;;;;35.60;20.10;;;;;;;;;;5072596;28;20562;-64
2022/11/22 13:07:37;;;;;;;36.90;20.98;;;;;;;;;;5073047;28;20195;-56
2022/11/22 13:10:07;;;;;;;37.97;21.58;;;;;;;;;;5075541;28;20224;-61
2022/11/22 13:12:36;;;;;;;38.10;19.80;;;;;;;;;;5078895;28;20186;-61
2022/11/22 13:15:05;;;;;;;41.55;20.55;;;;;;;;;;5072370;28;20199;-62
2022/11/22 13:17:34;;;;;;;40.60;20.17;;;;;;;;;;5072264;28;20654;-59
2022/11/22 13:20:02;;;;;;;34.85;20.73;;;;;;;;;;5072127;28;20195;-57
2022/11/22 13:22:33;;;;;;;33.65;18.75;;;;;;;;;;5072091;28;20195;-59
2022/11/22 13:25:07;;;;;;;29.95;18.00;;;;;;;;;;5076989;28;20228;-60
2022/11/22 13:27:36;;;;;;;36.15;20.70;;;;;;;;;;5072162;28;20267;-60
2022/11/22 13:30:04;;;;;;;35.63;20.40;;;;;;;;;;5072154;28;20213;-59
2022/11/22 13:32:33;;;;;;;35.35;19.17;;;;;;;;;;5071933;28;20650;-60
2022/11/22 13:35:29;;;;;;;36.80;20.75;;;;;;;;;;5072209;28;20711;-59
2022/11/22 13:37:58;;;;;;;32.65;19.10;;;;;;;;;;5072296;28;20187;-62
2022/11/22 13:40:27;;;;;;;35.58;20.08;;;;;;;;;;5072071;28;20194;-56
2022/11/22 13:43:12;;;;;;;37.05;19.13;;;;;;;;;;5072072;28;20218;-59
2022/11/22 13:45:48;;;;;;;38.97;20.35;;;;;;;;;;5074299;28;20685;-59
2022/11/22 13:48:15;;;;;;;31.05;18.95;;;;;;;;;;5076696;28;20212;-59
2022/11/22 13:50:57;;;;;;;32.03;18.13;;;;;;;;;;5072184;28;20190;-61
2022/11/22 13:53:27;;;;;;;35.47;19.60;;;;;;;;;;5083837;28;20259;-60
2022/11/22 13:55:55;;;;;;;39.10;20.15;;;;;;;;;;5074940;28;20589;-60
2022/11/22 13:58:53;;;;;;;39.38;21.35;;;;;;;;;;5075838;28;20584;-60
2022/11/22 14:01:33;;;;;;;31.42;19.17;;;;;;;;;;5075546;28;20237;-59
2022/11/22 14:04:14;;;;;;;35.15;18.58;;;;;;;;;;5075376;28;20215;-59
2022/11/22 14:06:47;;;;;;;40.03;20.40;;;;;;;;;;5075322;28;20194;-59
2022/11/22 14:09:32;;;;;;;34.25;19.55;;;;;;;;;;5075856;28;20257;-59
2022/11/22 14:12:06;;;;;;;33.53;19.17;;;;;;;;;;5075859;28;20195;-60
2022/11/22 14:14:40;;;;;;;36.85;20.20;;;;;;;;;;5075898;28;20584;-59
2022/11/22 14:17:17;;;;;;;37.70;20.45;;;;;;;;;;5075909;28;20202;-60
2022/11/22 14:19:52;;;;;;;31.95;19.92;;;;;;;;;;5076012;28;20190;-59
2022/11/22 14:22:27;;;;;;;32.45;19.02;;;;;;;;;;5075797;28;20278;-61
2022/11/22 14:25:02;;;;;;;38.78;21.05;;;;;;;;;;5075424;28;20271;-60
2022/11/22 14:27:36;;;;;;;37.22;21.02;;;;;;;;;;5075762;28;20196;-60
2022/11/22 14:30:07;;;;;;;30.17;19.75;;;;;;;;;;5075135;28;20186;-59
2022/11/22 14:32:50;;;;;;;34.90;21.40;;;;;;;;;;5075220;28;20207;-59
2022/11/22 14:35:23;;;;;;;36.78;20.60;;;;;;;;;;5074932;28;20197;-59
2022/11/22 14:37:58;;;;;;;44.10;20.83;;;;;;;;;;5075670;28;20283;-59
2022/11/22 14:40:41;;;;;;;31.73;19.23;;;;;;;;;;5075710;28;20275;-61
2022/11/22 14:43:18;;;;;;;40.00;21.60;;;;;;;;;;5075069;28;20218;-60